Tetange, Luxembourg
Current Conditions -  °F | °C
As of 10:50 AM on Sunday 23 Nov 2014 (Local Time) from ELLX Reporting Station
Clear Clear  
Wind Chill: 44°   Ceiling: Unl
Heat Index: 46°   Visibility: 4mi
Dew Point: 45°   Wind: 5mph
Humidity: 93%   Direction: 130°SE
Pressure: 30.09"   Gusts: NA
Location:  49.48°N, 6.04°E
Report Text: ELLX 230950Z 13004KT 080V170 6000 NSC 08/07 Q1019 NOSIG
Loading
Personal Weather Stations






























Interactive Weather Map New forecast layout! Learn more

10-Day Weather Forecast

Advertisements
Track Severe Weather on mobile